Terminal Aerodrome Forecast
Issued by NWS

Current Version | Previous Version | Text Only | Print | Product List | Glossary On
Versions: 1 2 3 4 5 6 7 8 9 10 11 12 13 14 15
374 FTUS41 KGYX 241739 TAFPSM TAF KPSM 241739Z 2418/2518 24007KT P6SM FEW060 FM250000 20005KT P6SM SKC FM250700 20007KT P6SM SCT250 WS020/22035KT FM251500 20010KT P6SM BKN250=

USA.gov is the U.S. government's official web portal to all federal, state and local government web resources and services.